sensor_id;sensor_type;location;lat;lon;timestamp;P1;durP1;ratioP1;P2;durP2;ratioP2
57643;SDS011;43474;46.510;6.686;2023-04-06T00:01:30;16.48;;;14.88;;
57643;SDS011;43474;46.510;6.686;2023-04-06T00:03:56;15.93;;;14.73;;
57643;SDS011;43474;46.510;6.686;2023-04-06T00:06:22;16.35;;;14.75;;
57643;SDS011;43474;46.510;6.686;2023-04-06T00:08:47;17.65;;;14.80;;
57643;SDS011;43474;46.510;6.686;2023-04-06T00:11:13;16.13;;;14.73;;
57643;SDS011;43474;46.510;6.686;2023-04-06T00:13:39;15.98;;;14.57;;
57643;SDS011;43474;46.510;6.686;2023-04-06T00:16:04;16.00;;;14.45;;
57643;SDS011;43474;46.510;6.686;2023-04-06T00:18:31;15.18;;;13.93;;
57643;SDS011;43474;46.510;6.686;2023-04-06T00:20:57;17.45;;;14.70;;
57643;SDS011;43474;46.510;6.686;2023-04-06T00:23:23;15.82;;;14.43;;
57643;SDS011;43474;46.510;6.686;2023-04-06T00:25:48;17.00;;;14.68;;
57643;SDS011;43474;46.510;6.686;2023-04-06T00:28:14;15.00;;;13.80;;
57643;SDS011;43474;46.510;6.686;2023-04-06T00:30:40;17.65;;;15.20;;
57643;SDS011;43474;46.510;6.686;2023-04-06T00:33:06;16.02;;;14.60;;
57643;SDS011;43474;46.510;6.686;2023-04-06T00:35:31;17.08;;;14.20;;
57643;SDS011;43474;46.510;6.686;2023-04-06T00:37:57;16.23;;;14.73;;
57643;SDS011;43474;46.510;6.686;2023-04-06T00:40:23;16.02;;;14.63;;
57643;SDS011;43474;46.510;6.686;2023-04-06T00:42:48;15.82;;;14.52;;
57643;SDS011;43474;46.510;6.686;2023-04-06T00:45:14;16.00;;;14.50;;
57643;SDS011;43474;46.510;6.686;2023-04-06T00:47:40;17.35;;;14.95;;
57643;SDS011;43474;46.510;6.686;2023-04-06T00:50:06;15.50;;;14.10;;
57643;SDS011;43474;46.510;6.686;2023-04-06T00:52:33;14.85;;;13.43;;
57643;SDS011;43474;46.510;6.686;2023-04-06T00:54:59;17.58;;;16.00;;
57643;SDS011;43474;46.510;6.686;2023-04-06T00:57:24;15.90;;;14.43;;
57643;SDS011;43474;46.510;6.686;2023-04-06T00:59:50;16.30;;;15.00;;
57643;SDS011;43474;46.510;6.686;2023-04-06T01:02:18;16.42;;;15.23;;
57643;SDS011;43474;46.510;6.686;2023-04-06T01:04:43;16.10;;;14.70;;
57643;SDS011;43474;46.510;6.686;2023-04-06T01:07:09;16.52;;;14.88;;
57643;SDS011;43474;46.510;6.686;2023-04-06T01:09:35;16.85;;;15.45;;
57643;SDS011;43474;46.510;6.686;2023-04-06T01:12:01;16.95;;;15.63;;
57643;SDS011;43474;46.510;6.686;2023-04-06T01:14:27;17.33;;;15.82;;
57643;SDS011;43474;46.510;6.686;2023-04-06T01:16:53;16.17;;;14.77;;
57643;SDS011;43474;46.510;6.686;2023-04-06T01:19:19;16.38;;;14.82;;
57643;SDS011;43474;46.510;6.686;2023-04-06T01:21:46;16.92;;;15.55;;
57643;SDS011;43474;46.510;6.686;2023-04-06T01:24:11;16.45;;;14.85;;
57643;SDS011;43474;46.510;6.686;2023-04-06T01:26:38;15.50;;;13.90;;
57643;SDS011;43474;46.510;6.686;2023-04-06T01:29:04;17.20;;;15.23;;
57643;SDS011;43474;46.510;6.686;2023-04-06T01:31:29;16.38;;;14.93;;
57643;SDS011;43474;46.510;6.686;2023-04-06T01:33:55;16.00;;;14.50;;
57643;SDS011;43474;46.510;6.686;2023-04-06T01:36:21;17.77;;;16.30;;
57643;SDS011;43474;46.510;6.686;2023-04-06T01:38:46;16.25;;;14.73;;
57643;SDS011;43474;46.510;6.686;2023-04-06T01:41:12;16.05;;;14.60;;
57643;SDS011;43474;46.510;6.686;2023-04-06T01:43:38;17.02;;;15.43;;
57643;SDS011;43474;46.510;6.686;2023-04-06T01:46:03;16.45;;;15.02;;
57643;SDS011;43474;46.510;6.686;2023-04-06T01:48:30;17.40;;;15.95;;
57643;SDS011;43474;46.510;6.686;2023-04-06T01:50:55;16.02;;;14.80;;
57643;SDS011;43474;46.510;6.686;2023-04-06T01:53:21;15.98;;;14.30;;
57643;SDS011;43474;46.510;6.686;2023-04-06T01:55:47;25.77;;;23.88;;
57643;SDS011;43474;46.510;6.686;2023-04-06T01:58:12;23.85;;;22.15;;
57643;SDS011;43474;46.510;6.686;2023-04-06T02:00:39;27.25;;;25.35;;
57643;SDS011;43474;46.510;6.686;2023-04-06T02:03:05;23.48;;;21.88;;
57643;SDS011;43474;46.510;6.686;2023-04-06T02:05:32;22.55;;;20.85;;
57643;SDS011;43474;46.510;6.686;2023-04-06T02:08:06;22.65;;;20.95;;
57643;SDS011;43474;46.510;6.686;2023-04-06T02:10:33;23.13;;;21.42;;
57643;SDS011;43474;46.510;6.686;2023-04-06T02:12:59;23.38;;;21.83;;
57643;SDS011;43474;46.510;6.686;2023-04-06T02:15:25;25.67;;;23.77;;
57643;SDS011;43474;46.510;6.686;2023-04-06T02:17:51;23.60;;;21.70;;
57643;SDS011;43474;46.510;6.686;2023-04-06T02:20:17;25.38;;;23.65;;
57643;SDS011;43474;46.510;6.686;2023-04-06T02:22:43;24.35;;;22.80;;
57643;SDS011;43474;46.510;6.686;2023-04-06T02:25:09;25.27;;;23.48;;
57643;SDS011;43474;46.510;6.686;2023-04-06T02:27:34;23.55;;;21.60;;
57643;SDS011;43474;46.510;6.686;2023-04-06T02:30:02;30.35;;;28.25;;
57643;SDS011;43474;46.510;6.686;2023-04-06T02:32:28;27.48;;;25.75;;
57643;SDS011;43474;46.510;6.686;2023-04-06T02:34:54;22.77;;;21.33;;
57643;SDS011;43474;46.510;6.686;2023-04-06T02:37:19;24.75;;;23.20;;
57643;SDS011;43474;46.510;6.686;2023-04-06T02:39:45;25.80;;;24.17;;
57643;SDS011;43474;46.510;6.686;2023-04-06T02:42:11;29.67;;;27.77;;
57643;SDS011;43474;46.510;6.686;2023-04-06T02:44:37;30.27;;;28.13;;
57643;SDS011;43474;46.510;6.686;2023-04-06T02:47:02;28.77;;;27.02;;
57643;SDS011;43474;46.510;6.686;2023-04-06T02:49:28;25.05;;;23.38;;
57643;SDS011;43474;46.510;6.686;2023-04-06T02:51:54;25.02;;;23.50;;
57643;SDS011;43474;46.510;6.686;2023-04-06T02:54:19;26.00;;;24.17;;
57643;SDS011;43474;46.510;6.686;2023-04-06T02:56:45;24.90;;;23.13;;
57643;SDS011;43474;46.510;6.686;2023-04-06T02:59:10;24.40;;;22.70;;
57643;SDS011;43474;46.510;6.686;2023-04-06T03:01:36;22.00;;;20.33;;
57643;SDS011;43474;46.510;6.686;2023-04-06T03:04:02;22.17;;;20.67;;
57643;SDS011;43474;46.510;6.686;2023-04-06T03:06:28;22.92;;;21.35;;
57643;SDS011;43474;46.510;6.686;2023-04-06T03:08:54;26.58;;;24.67;;
57643;SDS011;43474;46.510;6.686;2023-04-06T03:11:19;22.27;;;20.60;;
57643;SDS011;43474;46.510;6.686;2023-04-06T03:13:45;21.98;;;20.38;;
57643;SDS011;43474;46.510;6.686;2023-04-06T03:16:11;23.35;;;21.85;;
57643;SDS011;43474;46.510;6.686;2023-04-06T03:18:37;20.50;;;18.70;;
57643;SDS011;43474;46.510;6.686;2023-04-06T03:21:02;21.73;;;20.00;;
57643;SDS011;43474;46.510;6.686;2023-04-06T03:23:28;26.00;;;23.73;;
57643;SDS011;43474;46.510;6.686;2023-04-06T03:25:53;25.00;;;23.02;;
57643;SDS011;43474;46.510;6.686;2023-04-06T03:28:19;22.60;;;20.90;;
57643;SDS011;43474;46.510;6.686;2023-04-06T03:30:45;20.83;;;19.13;;
57643;SDS011;43474;46.510;6.686;2023-04-06T03:33:11;22.05;;;20.40;;
57643;SDS011;43474;46.510;6.686;2023-04-06T03:35:36;22.58;;;20.75;;
57643;SDS011;43474;46.510;6.686;2023-04-06T03:38:02;21.98;;;19.98;;
57643;SDS011;43474;46.510;6.686;2023-04-06T03:40:28;21.55;;;19.70;;
57643;SDS011;43474;46.510;6.686;2023-04-06T03:42:55;20.67;;;18.23;;
57643;SDS011;43474;46.510;6.686;2023-04-06T03:45:20;18.80;;;17.20;;
57643;SDS011;43474;46.510;6.686;2023-04-06T03:47:46;17.73;;;16.23;;
57643;SDS011;43474;46.510;6.686;2023-04-06T03:50:11;17.90;;;16.30;;
57643;SDS011;43474;46.510;6.686;2023-04-06T03:52:37;19.65;;;17.90;;
57643;SDS011;43474;46.510;6.686;2023-04-06T03:55:03;18.42;;;16.88;;
57643;SDS011;43474;46.510;6.686;2023-04-06T03:57:29;19.67;;;18.27;;
57643;SDS011;43474;46.510;6.686;2023-04-06T03:59:54;19.83;;;18.02;;
57643;SDS011;43474;46.510;6.686;2023-04-06T04:02:20;21.45;;;19.75;;
57643;SDS011;43474;46.510;6.686;2023-04-06T04:04:45;21.73;;;19.92;;
57643;SDS011;43474;46.510;6.686;2023-04-06T04:07:11;21.48;;;19.80;;
57643;SDS011;43474;46.510;6.686;2023-04-06T04:09:37;22.13;;;20.33;;
57643;SDS011;43474;46.510;6.686;2023-04-06T04:12:02;19.80;;;18.10;;
57643;SDS011;43474;46.510;6.686;2023-04-06T04:14:28;20.15;;;18.65;;
57643;SDS011;43474;46.510;6.686;2023-04-06T04:16:54;18.80;;;17.40;;
57643;SDS011;43474;46.510;6.686;2023-04-06T04:19:19;19.58;;;17.85;;
57643;SDS011;43474;46.510;6.686;2023-04-06T04:21:45;21.73;;;19.77;;
57643;SDS011;43474;46.510;6.686;2023-04-06T04:24:12;21.52;;;19.95;;
57643;SDS011;43474;46.510;6.686;2023-04-06T04:26:38;23.27;;;21.30;;
57643;SDS011;43474;46.510;6.686;2023-04-06T04:29:04;25.83;;;23.42;;
57643;SDS011;43474;46.510;6.686;2023-04-06T04:31:30;26.42;;;24.38;;
57643;SDS011;43474;46.510;6.686;2023-04-06T04:33:55;29.52;;;27.63;;
57643;SDS011;43474;46.510;6.686;2023-04-06T04:36:21;49.47;;;46.22;;
57643;SDS011;43474;46.510;6.686;2023-04-06T04:38:46;57.50;;;54.40;;
57643;SDS011;43474;46.510;6.686;2023-04-06T04:41:12;47.10;;;44.30;;
57643;SDS011;43474;46.510;6.686;2023-04-06T04:43:38;37.13;;;34.55;;
57643;SDS011;43474;46.510;6.686;2023-04-06T04:46:04;30.42;;;28.05;;
57643;SDS011;43474;46.510;6.686;2023-04-06T04:48:29;31.70;;;29.58;;
57643;SDS011;43474;46.510;6.686;2023-04-06T04:50:55;37.42;;;34.95;;
57643;SDS011;43474;46.510;6.686;2023-04-06T04:53:21;38.50;;;35.85;;
57643;SDS011;43474;46.510;6.686;2023-04-06T04:55:47;50.08;;;47.17;;
57643;SDS011;43474;46.510;6.686;2023-04-06T04:58:12;56.05;;;52.80;;
57643;SDS011;43474;46.510;6.686;2023-04-06T05:00:42;53.47;;;50.25;;
57643;SDS011;43474;46.510;6.686;2023-04-06T05:03:08;54.17;;;50.83;;
57643;SDS011;43474;46.510;6.686;2023-04-06T05:05:34;57.38;;;53.95;;
57643;SDS011;43474;46.510;6.686;2023-04-06T05:08:00;69.78;;;65.82;;
57643;SDS011;43474;46.510;6.686;2023-04-06T05:10:26;72.90;;;68.75;;
57643;SDS011;43474;46.510;6.686;2023-04-06T05:12:52;68.57;;;64.70;;
57643;SDS011;43474;46.510;6.686;2023-04-06T05:15:17;91.70;;;86.72;;
57643;SDS011;43474;46.510;6.686;2023-04-06T05:17:43;116.20;;;109.97;;
57643;SDS011;43474;46.510;6.686;2023-04-06T05:20:09;144.65;;;137.15;;
57643;SDS011;43474;46.510;6.686;2023-04-06T05:22:35;238.10;;;226.57;;
57643;SDS011;43474;46.510;6.686;2023-04-06T05:25:01;375.05;;;356.23;;
57643;SDS011;43474;46.510;6.686;2023-04-06T05:27:27;505.77;;;479.23;;
57643;SDS011;43474;46.510;6.686;2023-04-06T05:29:53;571.10;;;539.90;;
57643;SDS011;43474;46.510;6.686;2023-04-06T05:32:19;634.67;;;598.97;;
57643;SDS011;43474;46.510;6.686;2023-04-06T05:34:48;692.70;;;651.15;;
57643;SDS011;43474;46.510;6.686;2023-04-06T05:37:14;721.60;;;677.50;;
57643;SDS011;43474;46.510;6.686;2023-04-06T05:39:41;720.45;;;676.78;;
57643;SDS011;43474;46.510;6.686;2023-04-06T05:42:06;713.00;;;669.83;;
57643;SDS011;43474;46.510;6.686;2023-04-06T05:44:32;706.50;;;664.13;;
57643;SDS011;43474;46.510;6.686;2023-04-06T05:46:58;710.80;;;667.13;;
57643;SDS011;43474;46.510;6.686;2023-04-06T05:49:24;708.20;;;665.80;;
57643;SDS011;43474;46.510;6.686;2023-04-06T05:51:49;699.10;;;657.30;;
57643;SDS011;43474;46.510;6.686;2023-04-06T05:54:15;678.83;;;638.80;;
57643;SDS011;43474;46.510;6.686;2023-04-06T05:56:40;672.75;;;633.30;;
57643;SDS011;43474;46.510;6.686;2023-04-06T05:59:07;675.40;;;635.95;;
57643;SDS011;43474;46.510;6.686;2023-04-06T06:01:32;666.15;;;627.40;;
57643;SDS011;43474;46.510;6.686;2023-04-06T06:04:00;665.40;;;626.58;;
57643;SDS011;43474;46.510;6.686;2023-04-06T06:06:27;653.00;;;615.58;;
57643;SDS011;43474;46.510;6.686;2023-04-06T06:08:53;652.22;;;615.08;;
57643;SDS011;43474;46.510;6.686;2023-04-06T06:11:18;625.90;;;590.63;;
57643;SDS011;43474;46.510;6.686;2023-04-06T06:13:44;625.50;;;590.65;;
57643;SDS011;43474;46.510;6.686;2023-04-06T06:16:10;625.90;;;590.67;;
57643;SDS011;43474;46.510;6.686;2023-04-06T06:18:35;626.25;;;590.92;;
57643;SDS011;43474;46.510;6.686;2023-04-06T06:21:02;610.63;;;576.42;;
57643;SDS011;43474;46.510;6.686;2023-04-06T06:23:28;602.08;;;568.97;;
57643;SDS011;43474;46.510;6.686;2023-04-06T06:25:53;589.33;;;557.10;;
57643;SDS011;43474;46.510;6.686;2023-04-06T06:28:19;578.28;;;546.85;;
57643;SDS011;43474;46.510;6.686;2023-04-06T06:30:44;590.13;;;557.95;;
57643;SDS011;43474;46.510;6.686;2023-04-06T06:33:10;570.83;;;539.85;;
57643;SDS011;43474;46.510;6.686;2023-04-06T06:35:36;563.20;;;532.95;;
57643;SDS011;43474;46.510;6.686;2023-04-06T06:38:01;566.60;;;535.88;;
57643;SDS011;43474;46.510;6.686;2023-04-06T06:40:27;570.28;;;539.03;;
57643;SDS011;43474;46.510;6.686;2023-04-06T06:42:53;550.22;;;520.58;;
57643;SDS011;43474;46.510;6.686;2023-04-06T06:45:19;554.42;;;524.38;;
57643;SDS011;43474;46.510;6.686;2023-04-06T06:47:45;542.00;;;512.88;;
57643;SDS011;43474;46.510;6.686;2023-04-06T06:50:11;531.42;;;502.52;;
57643;SDS011;43474;46.510;6.686;2023-04-06T06:52:37;507.77;;;480.88;;
57643;SDS011;43474;46.510;6.686;2023-04-06T06:55:02;471.10;;;446.58;;
57643;SDS011;43474;46.510;6.686;2023-04-06T06:57:28;419.10;;;397.65;;
57643;SDS011;43474;46.510;6.686;2023-04-06T06:59:53;328.73;;;312.77;;
57643;SDS011;43474;46.510;6.686;2023-04-06T07:02:19;221.10;;;210.57;;
57643;SDS011;43474;46.510;6.686;2023-04-06T07:04:47;95.78;;;90.95;;
57643;SDS011;43474;46.510;6.686;2023-04-06T07:07:16;27.48;;;25.60;;
57643;SDS011;43474;46.510;6.686;2023-04-06T07:09:41;17.38;;;15.60;;
57643;SDS011;43474;46.510;6.686;2023-04-06T07:12:07;19.17;;;17.25;;
57643;SDS011;43474;46.510;6.686;2023-04-06T07:14:32;19.58;;;17.95;;
57643;SDS011;43474;46.510;6.686;2023-04-06T07:16:58;26.52;;;24.52;;
57643;SDS011;43474;46.510;6.686;2023-04-06T07:19:24;28.33;;;25.95;;
57643;SDS011;43474;46.510;6.686;2023-04-06T07:21:51;41.65;;;39.05;;
57643;SDS011;43474;46.510;6.686;2023-04-06T07:24:16;42.40;;;39.78;;
57643;SDS011;43474;46.510;6.686;2023-04-06T07:26:42;66.13;;;62.40;;
57643;SDS011;43474;46.510;6.686;2023-04-06T07:29:07;58.03;;;54.75;;
57643;SDS011;43474;46.510;6.686;2023-04-06T07:31:33;98.55;;;93.30;;
57643;SDS011;43474;46.510;6.686;2023-04-06T07:34:00;83.00;;;78.53;;
57643;SDS011;43474;46.510;6.686;2023-04-06T07:36:26;105.95;;;100.72;;
57643;SDS011;43474;46.510;6.686;2023-04-06T07:38:51;106.80;;;101.45;;
57643;SDS011;43474;46.510;6.686;2023-04-06T07:41:17;118.50;;;112.53;;
57643;SDS011;43474;46.510;6.686;2023-04-06T07:43:43;95.22;;;90.38;;
57643;SDS011;43474;46.510;6.686;2023-04-06T07:46:09;94.05;;;89.25;;
57643;SDS011;43474;46.510;6.686;2023-04-06T07:48:34;102.68;;;97.50;;
57643;SDS011;43474;46.510;6.686;2023-04-06T07:51:00;89.75;;;85.07;;
57643;SDS011;43474;46.510;6.686;2023-04-06T07:53:30;101.43;;;95.95;;
57643;SDS011;43474;46.510;6.686;2023-04-06T07:55:57;96.22;;;91.22;;
57643;SDS011;43474;46.510;6.686;2023-04-06T07:58:25;94.05;;;89.25;;
57643;SDS011;43474;46.510;6.686;2023-04-06T08:00:51;75.30;;;71.47;;
57643;SDS011;43474;46.510;6.686;2023-04-06T08:03:17;77.13;;;73.22;;
57643;SDS011;43474;46.510;6.686;2023-04-06T08:05:42;59.58;;;56.45;;
57643;SDS011;43474;46.510;6.686;2023-04-06T08:08:08;60.55;;;57.25;;
57643;SDS011;43474;46.510;6.686;2023-04-06T08:10:34;57.95;;;54.70;;
57643;SDS011;43474;46.510;6.686;2023-04-06T08:13:00;57.03;;;54.00;;
57643;SDS011;43474;46.510;6.686;2023-04-06T08:15:26;58.50;;;55.45;;
57643;SDS011;43474;46.510;6.686;2023-04-06T08:17:51;52.25;;;49.50;;
57643;SDS011;43474;46.510;6.686;2023-04-06T08:20:17;52.17;;;49.17;;
57643;SDS011;43474;46.510;6.686;2023-04-06T08:22:43;50.08;;;47.28;;
57643;SDS011;43474;46.510;6.686;2023-04-06T08:25:08;44.78;;;42.17;;
57643;SDS011;43474;46.510;6.686;2023-04-06T08:27:34;45.55;;;42.85;;
57643;SDS011;43474;46.510;6.686;2023-04-06T08:30:00;36.92;;;34.67;;
57643;SDS011;43474;46.510;6.686;2023-04-06T08:32:26;39.88;;;37.47;;
57643;SDS011;43474;46.510;6.686;2023-04-06T08:34:55;36.92;;;34.70;;
57643;SDS011;43474;46.510;6.686;2023-04-06T08:37:21;40.13;;;37.67;;
57643;SDS011;43474;46.510;6.686;2023-04-06T08:39:47;39.28;;;36.88;;
57643;SDS011;43474;46.510;6.686;2023-04-06T08:42:16;36.53;;;34.15;;
57643;SDS011;43474;46.510;6.686;2023-04-06T08:44:45;36.17;;;34.03;;
57643;SDS011;43474;46.510;6.686;2023-04-06T08:47:12;33.95;;;31.85;;
57643;SDS011;43474;46.510;6.686;2023-04-06T08:49:38;33.17;;;31.00;;
57643;SDS011;43474;46.510;6.686;2023-04-06T08:52:07;30.75;;;28.70;;
57643;SDS011;43474;46.510;6.686;2023-04-06T08:54:36;28.77;;;26.58;;
57643;SDS011;43474;46.510;6.686;2023-04-06T08:57:02;22.60;;;21.00;;
57643;SDS011;43474;46.510;6.686;2023-04-06T08:59:28;22.75;;;21.20;;
57643;SDS011;43474;46.510;6.686;2023-04-06T09:01:55;25.13;;;23.27;;
57643;SDS011;43474;46.510;6.686;2023-04-06T09:04:21;22.50;;;20.73;;
57643;SDS011;43474;46.510;6.686;2023-04-06T09:06:46;23.02;;;21.38;;
57643;SDS011;43474;46.510;6.686;2023-04-06T09:09:12;23.65;;;22.05;;
57643;SDS011;43474;46.510;6.686;2023-04-06T09:11:45;23.83;;;22.02;;
57643;SDS011;43474;46.510;6.686;2023-04-06T09:14:12;22.92;;;21.33;;
57643;SDS011;43474;46.510;6.686;2023-04-06T09:16:39;21.25;;;19.85;;
57643;SDS011;43474;46.510;6.686;2023-04-06T09:19:09;22.52;;;20.85;;
57643;SDS011;43474;46.510;6.686;2023-04-06T09:21:35;20.80;;;19.33;;
57643;SDS011;43474;46.510;6.686;2023-04-06T09:24:02;20.92;;;19.33;;
57643;SDS011;43474;46.510;6.686;2023-04-06T09:26:28;20.70;;;19.00;;
57643;SDS011;43474;46.510;6.686;2023-04-06T09:28:55;20.60;;;19.00;;
57643;SDS011;43474;46.510;6.686;2023-04-06T09:33:56;19.83;;;17.02;;
57643;SDS011;43474;46.510;6.686;2023-04-06T09:36:35;18.77;;;17.17;;
57643;SDS011;43474;46.510;6.686;2023-04-06T09:39:06;21.25;;;19.35;;
57643;SDS011;43474;46.510;6.686;2023-04-06T09:41:33;21.00;;;19.58;;
57643;SDS011;43474;46.510;6.686;2023-04-06T09:44:04;21.40;;;19.63;;
57643;SDS011;43474;46.510;6.686;2023-04-06T09:46:36;19.85;;;18.33;;
57643;SDS011;43474;46.510;6.686;2023-04-06T09:49:03;19.23;;;17.65;;
57643;SDS011;43474;46.510;6.686;2023-04-06T09:51:30;17.25;;;15.70;;
57643;SDS011;43474;46.510;6.686;2023-04-06T09:53:57;15.90;;;14.60;;
57643;SDS011;43474;46.510;6.686;2023-04-06T09:58:57;15.35;;;13.95;;
57643;SDS011;43474;46.510;6.686;2023-04-06T10:01:29;18.42;;;16.75;;
57643;SDS011;43474;46.510;6.686;2023-04-06T10:04:43;15.25;;;13.75;;
57643;SDS011;43474;46.510;6.686;2023-04-06T10:06:49;14.80;;;13.30;;
57643;SDS011;43474;46.510;6.686;2023-04-06T10:09:18;14.45;;;12.95;;
57643;SDS011;43474;46.510;6.686;2023-04-06T10:11:45;13.70;;;12.40;;
57643;SDS011;43474;46.510;6.686;2023-04-06T10:14:13;13.32;;;11.80;;
57643;SDS011;43474;46.510;6.686;2023-04-06T10:16:39;12.02;;;10.82;;
57643;SDS011;43474;46.510;6.686;2023-04-06T10:19:06;13.48;;;12.30;;
57643;SDS011;43474;46.510;6.686;2023-04-06T10:21:48;12.82;;;11.63;;
57643;SDS011;43474;46.510;6.686;2023-04-06T10:24:19;11.57;;;10.48;;
57643;SDS011;43474;46.510;6.686;2023-04-06T10:26:56;12.68;;;11.48;;
57643;SDS011;43474;46.510;6.686;2023-04-06T10:29:23;12.18;;;11.00;;
57643;SDS011;43474;46.510;6.686;2023-04-06T10:31:49;13.60;;;11.88;;
57643;SDS011;43474;46.510;6.686;2023-04-06T10:34:14;13.38;;;12.27;;
57643;SDS011;43474;46.510;6.686;2023-04-06T10:36:40;12.82;;;11.63;;
57643;SDS011;43474;46.510;6.686;2023-04-06T10:39:06;11.07;;;10.07;;
57643;SDS011;43474;46.510;6.686;2023-04-06T10:41:42;12.30;;;11.13;;
57643;SDS011;43474;46.510;6.686;2023-04-06T10:44:22;13.43;;;12.10;;
57643;SDS011;43474;46.510;6.686;2023-04-06T10:46:53;12.65;;;11.38;;
57643;SDS011;43474;46.510;6.686;2023-04-06T10:49:20;13.18;;;11.85;;
57643;SDS011;43474;46.510;6.686;2023-04-06T10:51:50;12.68;;;11.45;;
57643;SDS011;43474;46.510;6.686;2023-04-06T10:54:17;12.30;;;11.00;;
57643;SDS011;43474;46.510;6.686;2023-04-06T10:56:45;13.55;;;12.15;;
57643;SDS011;43474;46.510;6.686;2023-04-06T10:59:11;12.65;;;11.43;;
57643;SDS011;43474;46.510;6.686;2023-04-06T11:01:37;12.70;;;11.40;;
57643;SDS011;43474;46.510;6.686;2023-04-06T11:04:02;12.48;;;11.30;;
57643;SDS011;43474;46.510;6.686;2023-04-06T11:06:29;13.10;;;11.75;;
57643;SDS011;43474;46.510;6.686;2023-04-06T11:08:57;19.52;;;11.98;;
57643;SDS011;43474;46.510;6.686;2023-04-06T11:11:24;12.77;;;10.88;;
57643;SDS011;43474;46.510;6.686;2023-04-06T11:13:52;11.45;;;10.32;;
57643;SDS011;43474;46.510;6.686;2023-04-06T11:16:26;16.45;;;9.57;;
57643;SDS011;43474;46.510;6.686;2023-04-06T11:18:54;12.40;;;10.85;;
57643;SDS011;43474;46.510;6.686;2023-04-06T11:21:33;10.73;;;9.63;;
57643;SDS011;43474;46.510;6.686;2023-04-06T11:29:14;11.15;;;9.68;;
57643;SDS011;43474;46.510;6.686;2023-04-06T11:31:42;10.32;;;9.18;;
57643;SDS011;43474;46.510;6.686;2023-04-06T11:34:12;10.63;;;9.63;;
57643;SDS011;43474;46.510;6.686;2023-04-06T11:36:48;10.18;;;9.18;;
57643;SDS011;43474;46.510;6.686;2023-04-06T11:39:20;11.77;;;9.65;;
57643;SDS011;43474;46.510;6.686;2023-04-06T11:41:50;11.07;;;9.73;;
57643;SDS011;43474;46.510;6.686;2023-04-06T11:44:38;12.13;;;10.90;;
57643;SDS011;43474;46.510;6.686;2023-04-06T11:47:04;11.38;;;9.63;;
57643;SDS011;43474;46.510;6.686;2023-04-06T11:49:31;11.57;;;10.25;;
57643;SDS011;43474;46.510;6.686;2023-04-06T11:51:59;11.07;;;9.98;;
57643;SDS011;43474;46.510;6.686;2023-04-06T11:54:32;13.63;;;10.63;;
57643;SDS011;43474;46.510;6.686;2023-04-06T11:56:59;10.38;;;9.35;;
57643;SDS011;43474;46.510;6.686;2023-04-06T11:59:26;12.88;;;10.32;;
57643;SDS011;43474;46.510;6.686;2023-04-06T12:01:52;13.15;;;10.00;;
57643;SDS011;43474;46.510;6.686;2023-04-06T12:04:18;11.52;;;9.57;;
57643;SDS011;43474;46.510;6.686;2023-04-06T12:06:45;12.82;;;9.88;;
57643;SDS011;43474;46.510;6.686;2023-04-06T12:09:11;13.38;;;10.98;;
57643;SDS011;43474;46.510;6.686;2023-04-06T12:11:36;11.18;;;10.02;;
57643;SDS011;43474;46.510;6.686;2023-04-06T12:14:03;13.27;;;10.43;;
57643;SDS011;43474;46.510;6.686;2023-04-06T12:16:33;13.23;;;11.73;;
57643;SDS011;43474;46.510;6.686;2023-04-06T12:18:59;14.68;;;10.93;;
57643;SDS011;43474;46.510;6.686;2023-04-06T12:21:29;12.18;;;10.80;;
57643;SDS011;43474;46.510;6.686;2023-04-06T12:23:56;12.50;;;10.70;;
57643;SDS011;43474;46.510;6.686;2023-04-06T12:26:23;12.73;;;10.95;;
57643;SDS011;43474;46.510;6.686;2023-04-06T12:28:50;14.75;;;11.73;;
57643;SDS011;43474;46.510;6.686;2023-04-06T12:31:16;14.07;;;11.27;;
57643;SDS011;43474;46.510;6.686;2023-04-06T12:33:48;13.02;;;11.10;;
57643;SDS011;43474;46.510;6.686;2023-04-06T12:36:15;11.98;;;10.73;;
57643;SDS011;43474;46.510;6.686;2023-04-06T12:38:46;13.80;;;11.45;;
57643;SDS011;43474;46.510;6.686;2023-04-06T12:41:13;14.25;;;11.70;;
57643;SDS011;43474;46.510;6.686;2023-04-06T12:43:39;14.68;;;10.27;;
57643;SDS011;43474;46.510;6.686;2023-04-06T12:46:06;13.25;;;11.48;;
57643;SDS011;43474;46.510;6.686;2023-04-06T12:48:32;12.73;;;11.25;;
57643;SDS011;43474;46.510;6.686;2023-04-06T12:50:59;11.05;;;9.95;;
57643;SDS011;43474;46.510;6.686;2023-04-06T12:53:25;14.38;;;10.88;;
57643;SDS011;43474;46.510;6.686;2023-04-06T12:55:52;13.55;;;12.25;;
57643;SDS011;43474;46.510;6.686;2023-04-06T12:58:19;13.35;;;11.07;;
57643;SDS011;43474;46.510;6.686;2023-04-06T13:00:46;12.82;;;11.50;;
57643;SDS011;43474;46.510;6.686;2023-04-06T13:03:12;12.27;;;10.85;;
57643;SDS011;43474;46.510;6.686;2023-04-06T13:05:43;14.60;;;11.70;;
57643;SDS011;43474;46.510;6.686;2023-04-06T13:08:10;12.38;;;11.05;;
57643;SDS011;43474;46.510;6.686;2023-04-06T13:10:35;12.18;;;10.82;;
57643;SDS011;43474;46.510;6.686;2023-04-06T13:13:01;12.13;;;10.55;;
57643;SDS011;43474;46.510;6.686;2023-04-06T13:15:27;10.90;;;9.80;;
57643;SDS011;43474;46.510;6.686;2023-04-06T13:17:52;11.25;;;10.07;;
57643;SDS011;43474;46.510;6.686;2023-04-06T13:20:18;11.52;;;10.35;;
57643;SDS011;43474;46.510;6.686;2023-04-06T13:22:44;10.77;;;9.75;;
57643;SDS011;43474;46.510;6.686;2023-04-06T13:25:09;8.85;;;8.05;;
57643;SDS011;43474;46.510;6.686;2023-04-06T13:27:35;10.05;;;9.10;;
57643;SDS011;43474;46.510;6.686;2023-04-06T13:30:01;10.73;;;9.63;;
57643;SDS011;43474;46.510;6.686;2023-04-06T13:32:28;9.65;;;8.75;;
57643;SDS011;43474;46.510;6.686;2023-04-06T13:34:54;9.45;;;8.65;;
57643;SDS011;43474;46.510;6.686;2023-04-06T13:37:20;10.88;;;9.77;;
57643;SDS011;43474;46.510;6.686;2023-04-06T13:39:46;9.93;;;9.00;;
57643;SDS011;43474;46.510;6.686;2023-04-06T13:42:11;12.73;;;10.40;;
57643;SDS011;43474;46.510;6.686;2023-04-06T13:44:37;14.23;;;10.05;;
57643;SDS011;43474;46.510;6.686;2023-04-06T13:47:02;9.48;;;8.68;;
57643;SDS011;43474;46.510;6.686;2023-04-06T13:49:28;10.30;;;9.30;;
57643;SDS011;43474;46.510;6.686;2023-04-06T13:51:54;11.45;;;10.43;;
57643;SDS011;43474;46.510;6.686;2023-04-06T13:54:19;11.57;;;10.25;;
57643;SDS011;43474;46.510;6.686;2023-04-06T13:56:45;10.57;;;9.57;;
57643;SDS011;43474;46.510;6.686;2023-04-06T13:59:10;8.80;;;7.93;;
57643;SDS011;43474;46.510;6.686;2023-04-06T14:01:36;9.43;;;8.52;;
57643;SDS011;43474;46.510;6.686;2023-04-06T14:04:02;10.15;;;9.25;;
57643;SDS011;43474;46.510;6.686;2023-04-06T14:06:28;10.50;;;9.60;;
57643;SDS011;43474;46.510;6.686;2023-04-06T14:08:53;11.30;;;9.60;;
57643;SDS011;43474;46.510;6.686;2023-04-06T14:11:19;10.65;;;9.57;;
57643;SDS011;43474;46.510;6.686;2023-04-06T14:13:44;11.43;;;10.32;;
57643;SDS011;43474;46.510;6.686;2023-04-06T14:16:10;9.55;;;8.65;;
57643;SDS011;43474;46.510;6.686;2023-04-06T14:18:36;9.70;;;8.80;;
57643;SDS011;43474;46.510;6.686;2023-04-06T14:21:02;10.93;;;9.93;;
57643;SDS011;43474;46.510;6.686;2023-04-06T14:23:27;10.02;;;9.13;;
57643;SDS011;43474;46.510;6.686;2023-04-06T14:26:03;11.15;;;9.52;;